createdAt,value
2018-08-11T00:00:32.432Z,13.90
2018-08-11T00:03:01.549Z,13.90
2018-08-11T00:05:30.659Z,13.90
2018-08-11T00:07:59.880Z,13.80
2018-08-11T00:10:29.023Z,13.80
2018-08-11T00:12:58.078Z,13.80
2018-08-11T00:15:27.253Z,13.70
2018-08-11T00:17:56.390Z,13.70
2018-08-11T00:20:27.300Z,13.70
2018-08-11T00:22:56.489Z,13.70
2018-08-11T00:25:26.392Z,13.60
2018-08-11T00:27:55.649Z,13.50
2018-08-11T00:30:25.049Z,13.40
2018-08-11T00:32:54.201Z,13.30
2018-08-11T00:35:23.384Z,13.30
2018-08-11T00:37:52.512Z,13.40
2018-08-11T00:40:21.643Z,13.40
2018-08-11T00:42:51.244Z,13.40
2018-08-11T00:45:20.451Z,13.30
2018-08-11T00:47:49.607Z,13.30
2018-08-11T00:50:21.933Z,13.30
2018-08-11T00:52:51.325Z,13.30
2018-08-11T00:55:20.517Z,13.10
2018-08-11T00:57:49.621Z,13.10
2018-08-11T01:00:19.560Z,13.20
2018-08-11T01:02:48.681Z,13.10
2018-08-11T01:05:19.111Z,13.10
2018-08-11T01:07:49.076Z,13.10
2018-08-11T01:10:18.543Z,13.30
2018-08-11T01:12:48.255Z,13.20
2018-08-11T01:15:19.294Z,13.30
2018-08-11T01:17:49.237Z,13.20
2018-08-11T01:20:18.630Z,13.20
2018-08-11T01:22:48.361Z,13.20
2018-08-11T01:25:17.465Z,13.20
2018-08-11T01:27:46.624Z,13.30
2018-08-11T01:30:18.887Z,13.30
2018-08-11T01:32:48.211Z,13.40
2018-08-11T01:35:17.388Z,13.40
2018-08-11T01:37:46.887Z,13.40
2018-08-11T01:40:16.899Z,13.40
2018-08-11T01:42:47.122Z,13.40
2018-08-11T01:45:16.936Z,13.40
2018-08-11T01:47:46.069Z,13.30
2018-08-11T01:50:15.940Z,13.40
2018-08-11T01:52:46.174Z,13.40
2018-08-11T01:55:16.806Z,13.30
2018-08-11T01:57:46.114Z,13.40
2018-08-11T02:00:16.224Z,13.50
2018-08-11T02:02:45.353Z,13.40
2018-08-11T02:05:14.621Z,13.40
2018-08-11T02:07:44.445Z,13.30
2018-08-11T02:10:15.310Z,13.30
2018-08-11T02:12:45.109Z,13.30
2018-08-11T02:15:14.896Z,13.20
2018-08-11T02:17:44.040Z,13.20
2018-08-11T02:20:14.859Z,13.20
2018-08-11T02:22:45.688Z,13.10
2018-08-11T02:25:14.817Z,13.20
2018-08-11T02:27:43.917Z,13.20
2018-08-11T02:30:14.857Z,13.40
2018-08-11T02:32:44.081Z,13.50
2018-08-11T02:35:13.787Z,13.50
2018-08-11T02:37:43.307Z,13.60
2018-08-11T02:40:13.760Z,13.60
2018-08-11T02:42:42.924Z,13.60
2018-08-11T02:45:14.030Z,13.60
2018-08-11T02:47:43.370Z,13.50
2018-08-11T02:50:12.988Z,13.50
2018-08-11T02:52:42.659Z,13.60
2018-08-11T02:55:12.502Z,13.60
2018-08-11T02:57:41.630Z,13.60
2018-08-11T03:00:11.929Z,13.50
2018-08-11T03:02:41.107Z,13.50
2018-08-11T03:05:10.269Z,13.60
2018-08-11T03:07:39.671Z,13.70
2018-08-11T03:10:10.361Z,13.70
2018-08-11T03:12:40.408Z,13.80
2018-08-11T03:15:11.076Z,13.70
2018-08-11T03:17:40.957Z,13.70
2018-08-11T03:20:12.927Z,13.70
2018-08-11T03:22:42.308Z,13.70
2018-08-11T03:25:11.684Z,13.80
2018-08-11T03:27:40.811Z,13.70
2018-08-11T03:30:09.954Z,13.70
2018-08-11T03:32:39.057Z,13.70
2018-08-11T03:35:08.188Z,13.70
2018-08-11T03:37:37.358Z,13.70
2018-08-11T03:40:08.094Z,13.70
2018-08-11T03:42:37.229Z,13.70
2018-08-11T03:45:06.487Z,13.60
2018-08-11T03:47:35.591Z,13.60
2018-08-11T03:50:05.274Z,13.60
2018-08-11T03:52:34.464Z,13.70
2018-08-11T03:55:03.588Z,13.50
2018-08-11T03:57:32.788Z,13.50
2018-08-11T04:00:02.076Z,13.50
2018-08-11T04:02:31.221Z,13.60
2018-08-11T04:05:00.268Z,13.50
2018-08-11T04:07:29.400Z,13.70
2018-08-11T04:09:58.669Z,13.70
2018-08-11T04:12:27.731Z,13.70
2018-08-11T04:14:56.882Z,13.70
2018-08-11T04:17:42.786Z,13.70
2018-08-11T04:20:13.098Z,13.80
2018-08-11T04:22:42.428Z,13.80
2018-08-11T04:25:11.544Z,13.70
2018-08-11T04:27:40.620Z,13.70
2018-08-11T04:30:11.204Z,13.80
2018-08-11T04:32:40.511Z,13.80
2018-08-11T04:35:09.581Z,13.90
2018-08-11T04:37:38.695Z,14.00
2018-08-11T04:40:08.065Z,14.00
2018-08-11T04:42:37.194Z,14.10
2018-08-11T04:45:06.783Z,14.10
2018-08-11T04:47:36.001Z,14.10
2018-08-11T04:50:05.616Z,14.20
2018-08-11T04:52:34.763Z,14.20
2018-08-11T04:55:04.305Z,14.40
2018-08-11T04:57:33.454Z,14.30
2018-08-11T05:00:02.686Z,14.40
2018-08-11T05:02:31.867Z,14.40
2018-08-11T05:05:00.971Z,14.50
2018-08-11T05:07:30.057Z,14.80
2018-08-11T05:09:59.108Z,14.80
2018-08-11T05:12:28.225Z,14.80
2018-08-11T05:14:57.320Z,14.80
2018-08-11T05:17:26.445Z,14.80
2018-08-11T05:19:55.662Z,15.00
2018-08-11T05:22:24.815Z,15.00
2018-08-11T05:24:53.992Z,15.00
2018-08-11T05:27:23.259Z,15.00
2018-08-11T05:29:52.376Z,15.20
2018-08-11T05:32:21.496Z,15.20
2018-08-11T05:34:50.653Z,15.20
2018-08-11T05:37:19.758Z,15.20
2018-08-11T05:39:48.874Z,15.40
2018-08-11T05:42:18.042Z,15.40
2018-08-11T05:44:47.136Z,15.30
2018-08-11T05:47:16.234Z,15.00
2018-08-11T05:49:45.327Z,14.80
2018-08-11T05:52:14.427Z,14.70
2018-08-11T05:54:43.522Z,14.50
2018-08-11T05:57:12.716Z,14.30
2018-08-11T05:59:41.917Z,14.20
2018-08-11T06:02:11.043Z,14.20
2018-08-11T06:04:40.167Z,14.30
2018-08-11T06:07:09.403Z,14.20
2018-08-11T06:09:38.499Z,14.30
2018-08-11T06:12:07.609Z,14.40
2018-08-11T06:14:36.709Z,14.50
2018-08-11T06:17:05.894Z,14.50
2018-08-11T06:19:35.039Z,14.60
2018-08-11T06:22:04.906Z,14.60
2018-08-11T06:24:33.984Z,14.60
2018-08-11T06:27:03.084Z,14.60
2018-08-11T06:29:32.193Z,14.70
2018-08-11T06:32:01.308Z,14.70
2018-08-11T06:34:30.472Z,14.60
2018-08-11T06:36:59.631Z,15.30
2018-08-11T06:39:28.859Z,16.20
2018-08-11T06:41:57.968Z,16.60
2018-08-11T06:44:27.068Z,17.00
2018-08-11T06:46:56.197Z,16.90
2018-08-11T06:49:25.324Z,17.00
2018-08-11T06:51:54.550Z,17.30
2018-08-11T06:54:23.668Z,18.00
2018-08-11T06:56:52.737Z,17.50
2018-08-11T06:59:21.825Z,16.80
2018-08-11T07:01:51.132Z,17.30
2018-08-11T07:04:20.230Z,17.40
2018-08-11T07:06:49.366Z,17.00
2018-08-11T07:09:18.541Z,16.50
2018-08-11T07:11:47.665Z,17.20
2018-08-11T07:14:16.793Z,17.90
2018-08-11T07:16:46.021Z,18.50
2018-08-11T07:19:15.197Z,18.40
2018-08-11T07:21:44.677Z,18.70
2018-08-11T07:24:13.841Z,18.90
2018-08-11T07:26:43.080Z,19.50
2018-08-11T07:29:12.176Z,19.70
2018-08-11T07:31:41.324Z,20.30
2018-08-11T07:34:10.455Z,19.70
2018-08-11T07:36:39.639Z,18.90
2018-08-11T07:39:09.353Z,19.20
2018-08-11T07:41:38.535Z,20.30
2018-08-11T07:44:07.724Z,19.50
2018-08-11T07:46:36.892Z,19.40
2018-08-11T07:49:06.116Z,19.40
2018-08-11T07:51:35.223Z,19.60
2018-08-11T07:54:04.362Z,20.10
2018-08-11T07:56:33.462Z,19.70
2018-08-11T07:59:02.621Z,19.00
2018-08-11T08:01:31.730Z,20.20
2018-08-11T08:04:01.470Z,20.20
2018-08-11T08:06:30.515Z,20.40
2018-08-11T08:08:59.621Z,19.40
2018-08-11T08:11:29.010Z,19.10
2018-08-11T08:13:58.114Z,20.60
2018-08-11T08:16:27.211Z,21.50
2018-08-11T08:18:56.357Z,22.00
2018-08-11T08:21:25.492Z,20.40
2018-08-11T08:23:54.783Z,21.00
2018-08-11T08:26:24.066Z,20.80
2018-08-11T08:28:53.042Z,20.30
2018-08-11T08:31:22.184Z,19.80
2018-08-11T08:33:51.558Z,20.40
2018-08-11T08:36:20.906Z,20.70
2018-08-11T08:38:50.094Z,20.80
2018-08-11T08:41:19.352Z,20.70
2018-08-11T08:43:48.479Z,20.30
2018-08-11T08:46:17.578Z,19.60
2018-08-11T08:48:46.772Z,19.80
2018-08-11T08:51:15.852Z,20.00
2018-08-11T08:53:45.428Z,20.30
2018-08-11T08:56:14.547Z,20.30
2018-08-11T08:58:43.764Z,21.00
2018-08-11T09:01:12.893Z,21.20
2018-08-11T09:03:42.080Z,21.80
2018-08-11T09:06:11.248Z,21.80
2018-08-11T09:08:40.438Z,21.50
2018-08-11T09:11:09.684Z,22.60
2018-08-11T09:13:38.851Z,23.10
2018-08-11T09:16:08.129Z,22.00
2018-08-11T09:18:37.226Z,20.80
2018-08-11T09:21:06.364Z,20.10
2018-08-11T09:23:35.619Z,19.90
2018-08-11T09:26:04.695Z,20.00
2018-08-11T09:28:33.900Z,19.70
2018-08-11T09:31:03.040Z,19.60
2018-08-11T09:33:32.523Z,19.40
2018-08-11T09:36:01.672Z,19.40
2018-08-11T09:38:30.852Z,19.50
2018-08-11T09:41:00.645Z,19.90
2018-08-11T09:43:29.790Z,20.00
2018-08-11T09:45:59.035Z,20.20
2018-08-11T09:48:28.272Z,20.60
2018-08-11T09:50:57.442Z,21.20
2018-08-11T09:53:26.661Z,20.60
2018-08-11T09:55:55.924Z,20.10
2018-08-11T09:58:25.201Z,20.00
2018-08-11T10:00:55.296Z,21.20
2018-08-11T10:03:25.115Z,21.90
2018-08-11T10:05:54.249Z,22.40
2018-08-11T10:08:23.503Z,22.40
2018-08-11T10:10:52.597Z,22.40
2018-08-11T10:13:21.799Z,22.80
2018-08-11T10:15:51.020Z,22.20
2018-08-11T10:18:20.129Z,21.20
2018-08-11T10:20:49.223Z,21.60
2018-08-11T10:23:18.300Z,22.50
2018-08-11T10:25:47.500Z,23.20
2018-08-11T10:28:16.680Z,23.30
2018-08-11T10:30:45.834Z,23.90
2018-08-11T10:33:15.064Z,23.70
2018-08-11T10:35:44.180Z,23.80
2018-08-11T10:38:13.385Z,22.80
2018-08-11T10:40:42.605Z,22.00
2018-08-11T10:43:11.845Z,22.40
2018-08-11T10:45:41.064Z,23.30
2018-08-11T10:48:10.144Z,22.80
2018-08-11T10:50:39.473Z,21.90
2018-08-11T10:53:08.614Z,22.40
2018-08-11T10:55:37.822Z,23.60
2018-08-11T10:58:06.955Z,23.70
2018-08-11T11:00:36.095Z,24.20
2018-08-11T11:03:05.756Z,24.00
2018-08-11T11:05:34.910Z,24.00
2018-08-11T11:08:04.050Z,24.10
2018-08-11T11:10:33.189Z,24.60
2018-08-11T11:13:02.333Z,25.20
2018-08-11T11:15:31.432Z,24.50
2018-08-11T11:18:00.514Z,24.00
2018-08-11T11:20:29.700Z,24.20
2018-08-11T11:22:58.785Z,24.90
2018-08-11T11:25:28.113Z,24.20
2018-08-11T11:27:57.231Z,24.60
2018-08-11T11:30:26.407Z,24.80
2018-08-11T11:32:55.596Z,24.60
2018-08-11T11:35:24.684Z,24.70
2018-08-11T11:37:53.755Z,24.50
2018-08-11T11:40:22.921Z,24.30
2018-08-11T11:42:51.978Z,24.30
2018-08-11T11:45:21.138Z,23.40
2018-08-11T11:47:50.222Z,23.20
2018-08-11T11:50:19.497Z,23.10
2018-08-11T11:52:48.608Z,23.60
2018-08-11T11:55:17.848Z,24.30
2018-08-11T11:57:47.022Z,24.10
2018-08-11T12:00:16.086Z,24.60
2018-08-11T12:02:45.254Z,24.50
2018-08-11T12:05:14.308Z,24.60
2018-08-11T12:07:43.557Z,24.80
2018-08-11T12:10:12.709Z,24.90
2018-08-11T12:12:41.856Z,25.00
2018-08-11T12:15:11.037Z,25.00
2018-08-11T12:17:40.460Z,24.40
2018-08-11T12:20:09.636Z,24.10
2018-08-11T12:22:38.701Z,25.00
2018-08-11T12:25:08.399Z,24.90
2018-08-11T12:27:37.543Z,25.10
2018-08-11T12:30:08.545Z,25.20
2018-08-11T12:32:37.638Z,25.50
2018-08-11T12:35:06.887Z,24.80
2018-08-11T12:37:36.398Z,24.50
2018-08-11T12:40:05.677Z,23.90
2018-08-11T12:42:34.753Z,23.20
2018-08-11T12:45:03.913Z,23.50
2018-08-11T12:47:33.000Z,24.30
2018-08-11T12:50:02.143Z,25.10
2018-08-11T12:52:31.252Z,25.00
2018-08-11T12:55:00.427Z,24.60
2018-08-11T12:57:29.546Z,25.40
2018-08-11T12:59:58.653Z,25.70
2018-08-11T13:02:27.783Z,25.20
2018-08-11T13:04:56.972Z,24.90
2018-08-11T13:07:26.103Z,24.60
2018-08-11T13:09:55.205Z,24.60
2018-08-11T13:12:24.321Z,24.40
2018-08-11T13:14:53.427Z,24.70
2018-08-11T13:17:22.524Z,24.50
2018-08-11T13:19:51.658Z,24.20
2018-08-11T13:22:20.753Z,24.20
2018-08-11T13:24:56.866Z,24.80
2018-08-11T13:27:26.013Z,24.60
2018-08-11T13:29:55.103Z,24.50
2018-08-11T13:32:24.236Z,24.20
2018-08-11T13:34:53.583Z,24.00
2018-08-11T13:37:22.772Z,23.50
2018-08-11T13:39:52.683Z,23.90
2018-08-11T13:42:21.872Z,24.40
2018-08-11T13:44:50.959Z,24.40
2018-08-11T13:47:20.147Z,24.50
2018-08-11T13:49:49.762Z,24.40
2018-08-11T13:52:19.172Z,24.70
2018-08-11T13:54:48.343Z,24.40
2018-08-11T13:57:17.584Z,23.80
2018-08-11T13:59:46.702Z,24.70
2018-08-11T14:02:15.831Z,25.00
2018-08-11T14:04:45.070Z,24.80
2018-08-11T14:07:14.152Z,24.60
2018-08-11T14:09:43.278Z,24.00
2018-08-11T14:12:12.377Z,23.60
2018-08-11T14:14:42.052Z,23.10
2018-08-11T14:17:11.156Z,23.30
2018-08-11T14:19:40.247Z,24.20
2018-08-11T14:22:09.371Z,24.60
2018-08-11T14:24:38.742Z,24.50
2018-08-11T14:27:07.849Z,24.70
2018-08-11T14:29:36.941Z,24.80
2018-08-11T14:32:06.453Z,24.60
2018-08-11T14:34:35.569Z,24.60
2018-08-11T14:37:04.703Z,24.70
2018-08-11T14:39:33.947Z,24.40
2018-08-11T14:42:03.158Z,24.70
2018-08-11T14:44:32.929Z,24.40
2018-08-11T14:47:01.954Z,24.60
2018-08-11T14:49:31.101Z,24.50
2018-08-11T14:52:00.957Z,24.90
2018-08-11T14:54:30.116Z,24.80
2018-08-11T14:56:59.265Z,24.60
2018-08-11T14:59:28.436Z,24.70
2018-08-11T15:01:57.512Z,24.90
2018-08-11T15:04:26.680Z,24.80
2018-08-11T15:06:55.772Z,24.40
2018-08-11T15:09:24.872Z,24.30
2018-08-11T15:11:54.076Z,24.20
2018-08-11T15:14:23.173Z,24.20
2018-08-11T15:16:52.263Z,24.60
2018-08-11T15:19:21.356Z,24.90
2018-08-11T15:21:50.490Z,24.60
2018-08-11T15:24:19.703Z,24.40
2018-08-11T15:26:48.823Z,24.40
2018-08-11T15:29:17.922Z,24.30
2018-08-11T15:31:47.010Z,24.20
2018-08-11T15:34:16.209Z,24.30
2018-08-11T15:36:45.378Z,24.40
2018-08-11T15:39:14.783Z,24.40
2018-08-11T15:41:43.958Z,24.40
2018-08-11T15:44:13.032Z,23.90
2018-08-11T15:46:42.262Z,24.10
2018-08-11T15:49:11.301Z,23.80
2018-08-11T15:51:40.393Z,23.70
2018-08-11T15:54:09.520Z,23.70
2018-08-11T15:56:38.600Z,23.90
2018-08-11T15:59:07.705Z,23.60
2018-08-11T16:01:36.929Z,23.70
2018-08-11T16:04:06.236Z,23.70
2018-08-11T16:06:35.330Z,23.70
2018-08-11T16:09:11.291Z,23.70
2018-08-11T16:11:40.384Z,23.50
2018-08-11T16:14:09.837Z,23.70
2018-08-11T16:16:39.032Z,23.60
2018-08-11T16:19:08.187Z,23.40
2018-08-11T16:21:37.271Z,23.20
2018-08-11T16:24:06.364Z,23.10
2018-08-11T16:26:35.492Z,23.10
2018-08-11T16:29:04.700Z,23.20
2018-08-11T16:31:33.832Z,23.40
2018-08-11T16:34:02.962Z,23.30
2018-08-11T16:36:32.089Z,23.30
2018-08-11T16:39:01.191Z,23.20
2018-08-11T16:41:30.272Z,23.20
2018-08-11T16:43:59.424Z,23.20
2018-08-11T16:46:28.547Z,23.00
2018-08-11T16:48:57.604Z,22.90
2018-08-11T16:51:27.497Z,22.70
2018-08-11T16:53:57.598Z,22.50
2018-08-11T16:56:26.526Z,22.40
2018-08-11T16:58:56.602Z,22.30
2018-08-11T17:01:26.631Z,22.10
2018-08-11T17:03:55.739Z,21.90
2018-08-11T17:06:24.833Z,21.90
2018-08-11T17:08:53.908Z,22.00
2018-08-11T17:11:22.999Z,21.90
2018-08-11T17:13:52.127Z,22.00
2018-08-11T17:16:21.193Z,22.00
2018-08-11T17:18:50.380Z,21.90
2018-08-11T17:21:19.502Z,21.80
2018-08-11T17:23:48.591Z,21.70
2018-08-11T17:26:17.770Z,21.60
2018-08-11T17:28:46.900Z,21.60
2018-08-11T17:31:16.013Z,21.60
2018-08-11T17:33:45.151Z,21.60
2018-08-11T17:36:14.238Z,21.40
2018-08-11T17:38:43.329Z,21.40
2018-08-11T17:41:12.633Z,21.50
2018-08-11T17:43:41.741Z,21.50
2018-08-11T17:46:10.854Z,21.30
2018-08-11T17:48:39.951Z,21.20
2018-08-11T17:51:09.055Z,21.30
2018-08-11T17:53:38.292Z,21.20
2018-08-11T17:56:07.455Z,21.20
2018-08-11T17:58:36.517Z,21.10
2018-08-11T18:01:05.627Z,21.00
2018-08-11T18:03:34.731Z,21.00
2018-08-11T18:06:03.840Z,21.00
2018-08-11T18:08:32.967Z,20.90
2018-08-11T18:11:02.088Z,20.80
2018-08-11T18:13:31.157Z,20.80
2018-08-11T18:16:00.246Z,20.70
2018-08-11T18:18:29.342Z,20.70
2018-08-11T18:20:58.539Z,20.70
2018-08-11T18:23:27.633Z,20.60
2018-08-11T18:25:56.704Z,20.50
2018-08-11T18:28:25.784Z,20.40
2018-08-11T18:30:54.949Z,20.20
2018-08-11T18:33:24.073Z,20.20
2018-08-11T18:35:53.168Z,20.10
2018-08-11T18:38:22.338Z,20.10
2018-08-11T18:40:51.413Z,20.10
2018-08-11T18:43:20.546Z,20.20
2018-08-11T18:45:49.614Z,20.00
2018-08-11T18:48:18.755Z,19.90
2018-08-11T18:50:47.916Z,19.80
2018-08-11T18:53:17.021Z,19.70
2018-08-11T18:55:46.227Z,19.50
2018-08-11T18:58:15.393Z,19.50
2018-08-11T19:00:44.512Z,19.40
2018-08-11T19:03:14.431Z,19.20
2018-08-11T19:05:43.536Z,19.20
2018-08-11T19:08:12.693Z,19.30
2018-08-11T19:10:41.857Z,19.20
2018-08-11T19:13:11.025Z,19.10
2018-08-11T19:15:40.048Z,19.10
2018-08-11T19:18:09.163Z,18.90
2018-08-11T19:20:38.545Z,18.90
2018-08-11T19:23:07.691Z,18.70
2018-08-11T19:25:36.893Z,18.70
2018-08-11T19:28:06.164Z,18.70
2018-08-11T19:30:35.312Z,18.50
2018-08-11T19:33:04.454Z,18.40
2018-08-11T19:35:33.700Z,18.30
2018-08-11T19:38:02.899Z,18.20
2018-08-11T19:40:32.055Z,18.10
2018-08-11T19:43:01.246Z,18.10
2018-08-11T19:45:30.364Z,18.00
2018-08-11T19:47:59.492Z,18.00
2018-08-11T19:50:28.619Z,17.90
2018-08-11T19:52:57.776Z,17.80
2018-08-11T19:55:26.902Z,17.70
2018-08-11T19:57:55.989Z,17.60
2018-08-11T20:00:25.168Z,17.50
2018-08-11T20:02:54.342Z,17.50
2018-08-11T20:05:23.509Z,17.40
2018-08-11T20:07:52.659Z,17.10
2018-08-11T20:10:21.826Z,17.10
2018-08-11T20:12:50.956Z,17.00
2018-08-11T20:15:20.172Z,16.90
2018-08-11T20:17:49.283Z,16.90
2018-08-11T20:20:18.420Z,16.90
2018-08-11T20:22:47.542Z,16.80
2018-08-11T20:25:16.663Z,16.70
2018-08-11T20:27:45.757Z,16.90
2018-08-11T20:30:14.912Z,16.90
2018-08-11T20:32:44.049Z,16.80
2018-08-11T20:35:13.228Z,16.70
2018-08-11T20:37:42.356Z,16.70
2018-08-11T20:40:11.525Z,16.70
2018-08-11T20:42:40.600Z,16.50
2018-08-11T20:45:10.156Z,16.50
2018-08-11T20:47:39.308Z,16.40
2018-08-11T20:50:09.146Z,16.40
2018-08-11T20:52:38.324Z,16.30
2018-08-11T20:55:08.136Z,16.30
2018-08-11T20:57:37.261Z,16.20
2018-08-11T21:00:09.029Z,16.20
2018-08-11T21:02:38.530Z,16.10
2018-08-11T21:05:10.256Z,16.00
2018-08-11T21:07:40.197Z,15.90
2018-08-11T21:10:12.593Z,15.70
2018-08-11T21:12:42.492Z,15.60
2018-08-11T21:15:12.343Z,15.70
2018-08-11T21:17:41.465Z,15.70
2018-08-11T21:20:12.917Z,15.80
2018-08-11T21:22:42.445Z,15.70
2018-08-11T21:25:12.054Z,15.60
2018-08-11T21:27:41.166Z,15.50
2018-08-11T21:30:12.498Z,15.60
2018-08-11T21:32:42.208Z,15.60
2018-08-11T21:35:11.479Z,15.40
2018-08-11T21:37:40.671Z,15.40
2018-08-11T21:40:12.961Z,15.30
2018-08-11T21:42:42.857Z,15.20
2018-08-11T21:45:11.997Z,15.10
2018-08-11T21:47:42.071Z,15.20
2018-08-11T21:50:11.351Z,15.20
2018-08-11T21:52:40.668Z,15.20
2018-08-11T21:55:10.031Z,15.00
2018-08-11T21:57:39.339Z,15.00
2018-08-11T22:00:39.451Z,14.90
2018-08-11T22:03:09.260Z,14.70
2018-08-11T22:05:38.344Z,14.70
2018-08-11T22:08:07.464Z,14.80
2018-08-11T22:10:36.621Z,14.90
2018-08-11T22:13:05.849Z,14.70
2018-08-11T22:15:34.939Z,14.70
2018-08-11T22:18:04.272Z,14.60
2018-08-11T22:20:33.400Z,14.60
2018-08-11T22:23:02.733Z,14.50
2018-08-11T22:25:31.912Z,14.50
2018-08-11T22:28:01.711Z,14.50
2018-08-11T22:30:30.780Z,14.50
2018-08-11T22:32:59.894Z,14.40
2018-08-11T22:35:29.011Z,14.30
2018-08-11T22:37:58.172Z,14.30
2018-08-11T22:40:27.320Z,14.30
2018-08-11T22:42:56.452Z,14.20
2018-08-11T22:45:25.528Z,14.20
2018-08-11T22:47:54.712Z,14.10
2018-08-11T22:50:24.101Z,14.00
2018-08-11T22:52:53.252Z,14.00
2018-08-11T22:55:22.351Z,13.90
2018-08-11T22:57:51.426Z,13.90
2018-08-11T23:00:21.666Z,13.80
2018-08-11T23:02:50.760Z,13.70
2018-08-11T23:05:21.079Z,13.70
2018-08-11T23:07:50.243Z,13.60
2018-08-11T23:10:19.469Z,13.60
2018-08-11T23:12:48.540Z,13.50
2018-08-11T23:15:18.816Z,13.60
2018-08-11T23:17:49.488Z,13.50
2018-08-11T23:20:18.670Z,13.60
2018-08-11T23:22:47.812Z,13.50
2018-08-11T23:25:17.136Z,13.40
2018-08-11T23:27:46.237Z,13.30
2018-08-11T23:30:16.552Z,13.30
2018-08-11T23:32:45.862Z,13.30
2018-08-11T23:35:15.145Z,13.20
2018-08-11T23:37:44.235Z,13.20
2018-08-11T23:40:13.340Z,13.30
2018-08-11T23:42:42.412Z,13.20
2018-08-11T23:45:16.043Z,13.10
2018-08-11T23:47:45.362Z,12.90
2018-08-11T23:50:15.050Z,12.90
2018-08-11T23:52:44.945Z,13.00
2018-08-11T23:55:15.093Z,13.00
2018-08-11T23:57:44.180Z,12.90
